Edgerton, Wisconsin
Current Conditions -  °F | °C
As of 3:55 AM on Sunday 25 Jan 2015 (Local Time) from KJVL Reporting Station
Overcast Overcast  
Wind Chill: 21°   Ceiling: 900
Heat Index: 32°   Visibility: 10mi
Dew Point: 30°   Wind: 17mph
Humidity: 93%   Direction: 60°ENE
Pressure: 29.7"   Gusts: 23mph
Location:  42.84°N, 89.07°W
Report Text: KJVL 250955Z AUTO 06015G20KT 10SM OVC009 00/M01 A2970 RMK AO2
Loading
Personal Weather Stations






























Interactive Weather Map New forecast layout! Learn more

10-Day Weather Forecast

Advertisements
Track Severe Weather on mobile